Terminal Aerodrome Forecast
Issued by NWS

Home | Current Version | Previous Version | Text Only | Print | Product List | Glossary Off
Versions: 1 2 3 4 5 6 7 8 9 10 11 12 13

000
FTUS42 KMHX 181700
TAFOAJ
TAF
KOAJ 181739Z 1818/1918 26006KT P6SM FEW050
     FM190200 33008KT P6SM BKN050
     FM191200 35010G15KT P6SM SKC
      AMD LTD TO CLD VIS AND WIND=

USA.gov is the U.S. government's official web portal to all federal, state and local government web resources and services.